sensor_id;sensor_type;location;lat;lon;timestamp;temperature;humidity
3638;DHT22;1835;50.068;8.154;2022-07-21T00:00:36;21.60;99.90
3638;DHT22;1835;50.068;8.154;2022-07-21T00:03:05;21.60;99.90
3638;DHT22;1835;50.068;8.154;2022-07-21T00:05:33;21.70;99.90
3638;DHT22;1835;50.068;8.154;2022-07-21T00:08:04;21.70;99.90
3638;DHT22;1835;50.068;8.154;2022-07-21T00:10:32;21.70;99.90
3638;DHT22;1835;50.068;8.154;2022-07-21T00:13:01;21.80;99.90
3638;DHT22;1835;50.068;8.154;2022-07-21T00:15:29;21.80;99.90
3638;DHT22;1835;50.068;8.154;2022-07-21T00:18:00;21.80;99.90
3638;DHT22;1835;50.068;8.154;2022-07-21T00:20:28;21.80;99.90
3638;DHT22;1835;50.068;8.154;2022-07-21T00:22:57;21.70;99.90
3638;DHT22;1835;50.068;8.154;2022-07-21T00:25:27;21.60;99.90
3638;DHT22;1835;50.068;8.154;2022-07-21T00:28:00;21.70;99.90
3638;DHT22;1835;50.068;8.154;2022-07-21T00:30:29;21.60;99.90
3638;DHT22;1835;50.068;8.154;2022-07-21T00:32:58;21.60;99.90
3638;DHT22;1835;50.068;8.154;2022-07-21T00:35:27;21.70;99.90
3638;DHT22;1835;50.068;8.154;2022-07-21T00:37:55;21.80;99.90
3638;DHT22;1835;50.068;8.154;2022-07-21T00:40:23;21.80;99.90
3638;DHT22;1835;50.068;8.154;2022-07-21T00:42:53;21.70;99.90
3638;DHT22;1835;50.068;8.154;2022-07-21T00:45:22;21.60;99.90
3638;DHT22;1835;50.068;8.154;2022-07-21T00:47:51;21.60;99.90
3638;DHT22;1835;50.068;8.154;2022-07-21T00:50:20;21.70;99.90
3638;DHT22;1835;50.068;8.154;2022-07-21T00:52:49;21.70;99.90
3638;DHT22;1835;50.068;8.154;2022-07-21T00:55:19;21.80;99.90
3638;DHT22;1835;50.068;8.154;2022-07-21T00:57:50;21.80;99.90
3638;DHT22;1835;50.068;8.154;2022-07-21T01:00:22;21.60;99.90
3638;DHT22;1835;50.068;8.154;2022-07-21T01:02:52;21.60;99.90
3638;DHT22;1835;50.068;8.154;2022-07-21T01:05:21;21.60;99.90
3638;DHT22;1835;50.068;8.154;2022-07-21T01:07:51;21.60;99.90
3638;DHT22;1835;50.068;8.154;2022-07-21T01:10:22;21.80;99.90
3638;DHT22;1835;50.068;8.154;2022-07-21T01:12:52;21.90;99.90
3638;DHT22;1835;50.068;8.154;2022-07-21T01:15:22;21.60;99.90
3638;DHT22;1835;50.068;8.154;2022-07-21T01:17:51;21.60;99.90
3638;DHT22;1835;50.068;8.154;2022-07-21T01:20:20;21.60;99.90
3638;DHT22;1835;50.068;8.154;2022-07-21T01:22:52;21.40;99.90
3638;DHT22;1835;50.068;8.154;2022-07-21T01:25:23;21.20;99.90
3638;DHT22;1835;50.068;8.154;2022-07-21T01:27:51;21.20;99.90
3638;DHT22;1835;50.068;8.154;2022-07-21T01:30:20;20.90;99.90
3638;DHT22;1835;50.068;8.154;2022-07-21T01:32:48;20.80;99.90
3638;DHT22;1835;50.068;8.154;2022-07-21T01:35:17;20.60;99.90
3638;DHT22;1835;50.068;8.154;2022-07-21T01:37:46;20.50;99.90
3638;DHT22;1835;50.068;8.154;2022-07-21T01:40:17;20.40;99.90
3638;DHT22;1835;50.068;8.154;2022-07-21T01:43:03;20.30;99.90
3638;DHT22;1835;50.068;8.154;2022-07-21T01:45:38;20.00;99.90
3638;DHT22;1835;50.068;8.154;2022-07-21T01:48:08;20.00;99.90
3638;DHT22;1835;50.068;8.154;2022-07-21T01:50:37;19.90;99.90
3638;DHT22;1835;50.068;8.154;2022-07-21T01:53:05;19.90;99.90
3638;DHT22;1835;50.068;8.154;2022-07-21T01:55:35;19.80;99.90
3638;DHT22;1835;50.068;8.154;2022-07-21T01:58:03;19.80;99.90
3638;DHT22;1835;50.068;8.154;2022-07-21T02:00:31;19.90;99.90
3638;DHT22;1835;50.068;8.154;2022-07-21T02:03:00;19.90;99.90
3638;DHT22;1835;50.068;8.154;2022-07-21T02:05:28;19.90;99.90
3638;DHT22;1835;50.068;8.154;2022-07-21T02:07:56;19.90;99.90
3638;DHT22;1835;50.068;8.154;2022-07-21T02:10:25;19.80;99.90
3638;DHT22;1835;50.068;8.154;2022-07-21T02:12:54;19.70;99.90
3638;DHT22;1835;50.068;8.154;2022-07-21T02:15:22;19.70;99.90
3638;DHT22;1835;50.068;8.154;2022-07-21T02:17:51;19.80;99.90
3638;DHT22;1835;50.068;8.154;2022-07-21T02:20:19;19.80;99.90
3638;DHT22;1835;50.068;8.154;2022-07-21T02:22:47;19.90;99.90
3638;DHT22;1835;50.068;8.154;2022-07-21T02:25:16;19.80;99.90
3638;DHT22;1835;50.068;8.154;2022-07-21T02:27:44;19.70;99.90
3638;DHT22;1835;50.068;8.154;2022-07-21T02:30:15;19.80;99.90
3638;DHT22;1835;50.068;8.154;2022-07-21T02:32:43;19.80;99.90
3638;DHT22;1835;50.068;8.154;2022-07-21T02:35:11;19.90;99.90
3638;DHT22;1835;50.068;8.154;2022-07-21T02:37:39;20.00;99.90
3638;DHT22;1835;50.068;8.154;2022-07-21T02:40:08;19.90;99.90
3638;DHT22;1835;50.068;8.154;2022-07-21T02:42:37;19.90;99.90
3638;DHT22;1835;50.068;8.154;2022-07-21T02:45:07;20.00;99.90
3638;DHT22;1835;50.068;8.154;2022-07-21T02:47:51;20.10;99.90
3638;DHT22;1835;50.068;8.154;2022-07-21T02:50:22;20.20;99.90
3638;DHT22;1835;50.068;8.154;2022-07-21T02:52:54;20.30;99.90
3638;DHT22;1835;50.068;8.154;2022-07-21T02:55:25;20.20;99.90
3638;DHT22;1835;50.068;8.154;2022-07-21T02:58:07;20.10;99.90
3638;DHT22;1835;50.068;8.154;2022-07-21T03:00:38;20.20;99.90
3638;DHT22;1835;50.068;8.154;2022-07-21T03:03:09;20.20;99.90
3638;DHT22;1835;50.068;8.154;2022-07-21T03:05:38;20.00;99.90
3638;DHT22;1835;50.068;8.154;2022-07-21T03:08:07;19.90;99.90
3638;DHT22;1835;50.068;8.154;2022-07-21T03:10:38;20.00;99.90
3638;DHT22;1835;50.068;8.154;2022-07-21T03:13:06;19.90;99.90
3638;DHT22;1835;50.068;8.154;2022-07-21T03:15:35;19.70;99.90
3638;DHT22;1835;50.068;8.154;2022-07-21T03:18:04;19.70;99.90
3638;DHT22;1835;50.068;8.154;2022-07-21T03:20:37;19.40;99.90
3638;DHT22;1835;50.068;8.154;2022-07-21T03:23:06;19.20;99.90
3638;DHT22;1835;50.068;8.154;2022-07-21T03:25:35;19.20;99.90
3638;DHT22;1835;50.068;8.154;2022-07-21T03:28:03;19.20;99.90
3638;DHT22;1835;50.068;8.154;2022-07-21T03:30:31;19.30;99.90
3638;DHT22;1835;50.068;8.154;2022-07-21T03:33:00;19.30;99.90
3638;DHT22;1835;50.068;8.154;2022-07-21T03:35:28;19.10;99.90
3638;DHT22;1835;50.068;8.154;2022-07-21T03:37:59;19.00;99.90
3638;DHT22;1835;50.068;8.154;2022-07-21T03:40:30;18.90;99.90
3638;DHT22;1835;50.068;8.154;2022-07-21T03:43:01;19.10;99.90
3638;DHT22;1835;50.068;8.154;2022-07-21T03:45:31;19.00;99.90
3638;DHT22;1835;50.068;8.154;2022-07-21T03:48:01;19.00;99.90
3638;DHT22;1835;50.068;8.154;2022-07-21T03:50:31;18.80;99.90
3638;DHT22;1835;50.068;8.154;2022-07-21T03:53:00;18.80;99.90
3638;DHT22;1835;50.068;8.154;2022-07-21T03:55:29;18.70;99.90
3638;DHT22;1835;50.068;8.154;2022-07-21T03:57:59;18.70;99.90
3638;DHT22;1835;50.068;8.154;2022-07-21T04:00:31;18.60;99.90
3638;DHT22;1835;50.068;8.154;2022-07-21T04:03:00;18.60;99.90
3638;DHT22;1835;50.068;8.154;2022-07-21T04:05:29;18.40;99.90
3638;DHT22;1835;50.068;8.154;2022-07-21T04:07:59;18.10;99.90
3638;DHT22;1835;50.068;8.154;2022-07-21T04:10:32;18.00;99.90
3638;DHT22;1835;50.068;8.154;2022-07-21T04:13:03;18.20;99.90
3638;DHT22;1835;50.068;8.154;2022-07-21T04:15:33;18.10;99.90
3638;DHT22;1835;50.068;8.154;2022-07-21T04:18:02;18.00;99.90
3638;DHT22;1835;50.068;8.154;2022-07-21T04:20:31;18.00;99.90
3638;DHT22;1835;50.068;8.154;2022-07-21T04:23:01;18.00;99.90
3638;DHT22;1835;50.068;8.154;2022-07-21T04:25:30;18.00;99.90
3638;DHT22;1835;50.068;8.154;2022-07-21T04:27:58;18.00;99.90
3638;DHT22;1835;50.068;8.154;2022-07-21T04:30:27;18.10;99.90
3638;DHT22;1835;50.068;8.154;2022-07-21T04:32:55;18.10;99.90
3638;DHT22;1835;50.068;8.154;2022-07-21T04:35:26;18.20;99.90
3638;DHT22;1835;50.068;8.154;2022-07-21T04:37:54;18.20;99.90
3638;DHT22;1835;50.068;8.154;2022-07-21T04:40:24;18.20;99.90
3638;DHT22;1835;50.068;8.154;2022-07-21T04:42:53;18.10;99.90
3638;DHT22;1835;50.068;8.154;2022-07-21T04:45:26;18.10;99.90
3638;DHT22;1835;50.068;8.154;2022-07-21T04:47:55;18.20;99.90
3638;DHT22;1835;50.068;8.154;2022-07-21T04:50:25;18.30;99.90
3638;DHT22;1835;50.068;8.154;2022-07-21T04:52:55;18.20;99.90
3638;DHT22;1835;50.068;8.154;2022-07-21T04:55:24;18.20;99.90
3638;DHT22;1835;50.068;8.154;2022-07-21T04:57:53;18.20;99.90
3638;DHT22;1835;50.068;8.154;2022-07-21T05:00:23;18.20;99.90
3638;DHT22;1835;50.068;8.154;2022-07-21T05:02:53;18.20;99.90
3638;DHT22;1835;50.068;8.154;2022-07-21T05:05:22;18.30;99.90
3638;DHT22;1835;50.068;8.154;2022-07-21T05:07:51;18.30;99.90
3638;DHT22;1835;50.068;8.154;2022-07-21T05:10:19;18.40;99.90
3638;DHT22;1835;50.068;8.154;2022-07-21T05:12:49;18.40;99.90
3638;DHT22;1835;50.068;8.154;2022-07-21T05:15:17;18.30;99.90
3638;DHT22;1835;50.068;8.154;2022-07-21T05:17:45;18.40;99.90
3638;DHT22;1835;50.068;8.154;2022-07-21T05:20:14;18.30;99.90
3638;DHT22;1835;50.068;8.154;2022-07-21T05:22:42;18.30;99.90
3638;DHT22;1835;50.068;8.154;2022-07-21T05:25:10;18.40;99.90
3638;DHT22;1835;50.068;8.154;2022-07-21T05:27:38;18.50;99.90
3638;DHT22;1835;50.068;8.154;2022-07-21T05:30:09;18.60;99.90
3638;DHT22;1835;50.068;8.154;2022-07-21T05:32:38;18.80;99.90
3638;DHT22;1835;50.068;8.154;2022-07-21T05:35:13;19.00;99.90
3638;DHT22;1835;50.068;8.154;2022-07-21T05:37:42;19.00;99.90
3638;DHT22;1835;50.068;8.154;2022-07-21T05:40:12;19.20;99.90
3638;DHT22;1835;50.068;8.154;2022-07-21T05:42:40;19.40;99.90
3638;DHT22;1835;50.068;8.154;2022-07-21T05:45:11;19.60;99.90
3638;DHT22;1835;50.068;8.154;2022-07-21T05:47:39;19.70;99.90
3638;DHT22;1835;50.068;8.154;2022-07-21T05:50:09;19.90;99.90
3638;DHT22;1835;50.068;8.154;2022-07-21T05:52:37;20.00;99.90
3638;DHT22;1835;50.068;8.154;2022-07-21T05:55:06;20.10;99.90
3638;DHT22;1835;50.068;8.154;2022-07-21T05:57:36;20.30;99.90
3638;DHT22;1835;50.068;8.154;2022-07-21T06:00:14;20.50;99.90
3638;DHT22;1835;50.068;8.154;2022-07-21T06:02:43;20.50;99.90
3638;DHT22;1835;50.068;8.154;2022-07-21T06:05:12;20.80;99.90
3638;DHT22;1835;50.068;8.154;2022-07-21T06:07:40;21.20;99.90
3638;DHT22;1835;50.068;8.154;2022-07-21T06:10:09;21.30;99.90
3638;DHT22;1835;50.068;8.154;2022-07-21T06:12:41;21.10;99.90
3638;DHT22;1835;50.068;8.154;2022-07-21T06:15:10;20.90;99.90
3638;DHT22;1835;50.068;8.154;2022-07-21T06:17:41;21.10;99.90
3638;DHT22;1835;50.068;8.154;2022-07-21T06:20:11;21.10;99.90
3638;DHT22;1835;50.068;8.154;2022-07-21T06:22:39;20.80;99.90
3638;DHT22;1835;50.068;8.154;2022-07-21T06:25:08;20.90;99.90
3638;DHT22;1835;50.068;8.154;2022-07-21T06:27:36;20.90;99.90
3638;DHT22;1835;50.068;8.154;2022-07-21T06:30:06;21.00;99.90
3638;DHT22;1835;50.068;8.154;2022-07-21T06:32:35;21.50;99.90
3638;DHT22;1835;50.068;8.154;2022-07-21T06:35:04;23.00;99.90
3638;DHT22;1835;50.068;8.154;2022-07-21T06:37:33;23.50;99.90
3638;DHT22;1835;50.068;8.154;2022-07-21T06:40:02;23.60;99.90
3638;DHT22;1835;50.068;8.154;2022-07-21T06:42:31;23.40;99.90
3638;DHT22;1835;50.068;8.154;2022-07-21T06:44:59;23.30;99.90
3638;DHT22;1835;50.068;8.154;2022-07-21T06:47:28;23.10;99.90
3638;DHT22;1835;50.068;8.154;2022-07-21T06:49:57;23.10;99.90
3638;DHT22;1835;50.068;8.154;2022-07-21T06:52:32;22.90;99.90
3638;DHT22;1835;50.068;8.154;2022-07-21T06:55:03;22.60;99.90
3638;DHT22;1835;50.068;8.154;2022-07-21T06:57:33;22.60;99.90
3638;DHT22;1835;50.068;8.154;2022-07-21T07:00:02;22.50;99.90
3638;DHT22;1835;50.068;8.154;2022-07-21T07:02:30;22.20;99.90
3638;DHT22;1835;50.068;8.154;2022-07-21T07:04:59;22.10;99.90
3638;DHT22;1835;50.068;8.154;2022-07-21T07:07:33;22.20;99.90
3638;DHT22;1835;50.068;8.154;2022-07-21T07:10:01;21.80;99.90
3638;DHT22;1835;50.068;8.154;2022-07-21T07:12:30;21.80;99.90
3638;DHT22;1835;50.068;8.154;2022-07-21T07:15:18;21.90;99.90
3638;DHT22;1835;50.068;8.154;2022-07-21T07:17:46;21.80;99.90
3638;DHT22;1835;50.068;8.154;2022-07-21T07:20:16;22.30;99.90
3638;DHT22;1835;50.068;8.154;2022-07-21T07:22:44;23.40;99.90
3638;DHT22;1835;50.068;8.154;2022-07-21T07:25:13;24.60;99.90
3638;DHT22;1835;50.068;8.154;2022-07-21T07:27:44;25.50;99.90
3638;DHT22;1835;50.068;8.154;2022-07-21T07:30:13;26.30;99.90
3638;DHT22;1835;50.068;8.154;2022-07-21T07:32:42;26.50;99.90
3638;DHT22;1835;50.068;8.154;2022-07-21T07:35:11;26.30;99.90
3638;DHT22;1835;50.068;8.154;2022-07-21T07:37:43;26.10;99.90
3638;DHT22;1835;50.068;8.154;2022-07-21T07:40:14;25.70;99.90
3638;DHT22;1835;50.068;8.154;2022-07-21T07:42:44;25.20;99.90
3638;DHT22;1835;50.068;8.154;2022-07-21T07:45:13;24.80;99.90
3638;DHT22;1835;50.068;8.154;2022-07-21T07:47:42;24.80;99.90
3638;DHT22;1835;50.068;8.154;2022-07-21T07:50:12;24.60;99.90
3638;DHT22;1835;50.068;8.154;2022-07-21T07:52:43;24.40;99.90
3638;DHT22;1835;50.068;8.154;2022-07-21T07:55:12;24.40;99.90
3638;DHT22;1835;50.068;8.154;2022-07-21T07:57:42;24.40;99.90
3638;DHT22;1835;50.068;8.154;2022-07-21T08:00:12;24.60;99.90
3638;DHT22;1835;50.068;8.154;2022-07-21T08:03:02;24.30;99.90
3638;DHT22;1835;50.068;8.154;2022-07-21T08:05:30;24.40;99.90
3638;DHT22;1835;50.068;8.154;2022-07-21T08:08:00;24.40;99.90
3638;DHT22;1835;50.068;8.154;2022-07-21T08:10:28;24.60;99.90
3638;DHT22;1835;50.068;8.154;2022-07-21T08:13:13;24.30;99.90
3638;DHT22;1835;50.068;8.154;2022-07-21T08:15:42;24.30;99.90
3638;DHT22;1835;50.068;8.154;2022-07-21T08:18:12;24.40;99.90
3638;DHT22;1835;50.068;8.154;2022-07-21T08:20:41;24.50;99.90
3638;DHT22;1835;50.068;8.154;2022-07-21T08:23:11;24.60;99.90
3638;DHT22;1835;50.068;8.154;2022-07-21T08:25:41;24.50;99.90
3638;DHT22;1835;50.068;8.154;2022-07-21T08:28:09;24.10;99.90
3638;DHT22;1835;50.068;8.154;2022-07-21T08:30:38;24.60;99.90
3638;DHT22;1835;50.068;8.154;2022-07-21T08:33:07;25.70;99.90
3638;DHT22;1835;50.068;8.154;2022-07-21T08:35:35;26.60;99.90
3638;DHT22;1835;50.068;8.154;2022-07-21T08:38:06;27.80;99.90
3638;DHT22;1835;50.068;8.154;2022-07-21T08:40:38;29.30;97.30
3638;DHT22;1835;50.068;8.154;2022-07-21T08:43:08;29.00;96.40
3638;DHT22;1835;50.068;8.154;2022-07-21T08:45:39;28.30;97.00
3638;DHT22;1835;50.068;8.154;2022-07-21T08:48:07;27.50;97.10
3638;DHT22;1835;50.068;8.154;2022-07-21T08:50:37;27.50;97.20
3638;DHT22;1835;50.068;8.154;2022-07-21T08:53:07;27.70;97.30
3638;DHT22;1835;50.068;8.154;2022-07-21T08:55:38;28.10;98.00
3638;DHT22;1835;50.068;8.154;2022-07-21T08:58:08;28.80;96.50
3638;DHT22;1835;50.068;8.154;2022-07-21T09:00:39;28.40;95.70
3638;DHT22;1835;50.068;8.154;2022-07-21T09:03:10;28.50;95.70
3638;DHT22;1835;50.068;8.154;2022-07-21T09:05:40;28.00;95.30
3638;DHT22;1835;50.068;8.154;2022-07-21T09:08:08;27.40;96.10
3638;DHT22;1835;50.068;8.154;2022-07-21T09:10:38;26.80;96.20
3638;DHT22;1835;50.068;8.154;2022-07-21T09:17:05;27.60;95.30
3638;DHT22;1835;50.068;8.154;2022-07-21T09:19:37;27.50;94.90
3638;DHT22;1835;50.068;8.154;2022-07-21T09:22:17;27.70;96.50
3638;DHT22;1835;50.068;8.154;2022-07-21T09:24:50;28.20;93.60
3638;DHT22;1835;50.068;8.154;2022-07-21T09:27:22;28.00;93.50
3638;DHT22;1835;50.068;8.154;2022-07-21T09:29:57;28.10;93.70
3638;DHT22;1835;50.068;8.154;2022-07-21T09:32:28;28.60;93.50
3638;DHT22;1835;50.068;8.154;2022-07-21T09:34:59;28.50;93.40
3638;DHT22;1835;50.068;8.154;2022-07-21T09:37:34;27.80;95.40
3638;DHT22;1835;50.068;8.154;2022-07-21T09:40:05;27.20;97.30
3638;DHT22;1835;50.068;8.154;2022-07-21T09:42:37;26.80;99.40
3638;DHT22;1835;50.068;8.154;2022-07-21T09:45:08;26.80;99.90
3638;DHT22;1835;50.068;8.154;2022-07-21T09:47:40;27.10;99.90
3638;DHT22;1835;50.068;8.154;2022-07-21T09:50:14;27.30;99.60
3638;DHT22;1835;50.068;8.154;2022-07-21T09:52:54;27.40;99.00
3638;DHT22;1835;50.068;8.154;2022-07-21T09:55:23;27.10;99.20
3638;DHT22;1835;50.068;8.154;2022-07-21T09:57:55;26.50;99.20
3638;DHT22;1835;50.068;8.154;2022-07-21T10:00:25;26.60;99.90
3638;DHT22;1835;50.068;8.154;2022-07-21T10:02:53;27.10;99.50
3638;DHT22;1835;50.068;8.154;2022-07-21T10:05:23;26.80;99.00
3638;DHT22;1835;50.068;8.154;2022-07-21T10:08:02;27.00;96.10
3638;DHT22;1835;50.068;8.154;2022-07-21T10:10:33;27.20;96.30
3638;DHT22;1835;50.068;8.154;2022-07-21T10:13:23;27.50;95.80
3638;DHT22;1835;50.068;8.154;2022-07-21T10:15:52;28.10;94.00
3638;DHT22;1835;50.068;8.154;2022-07-21T10:18:23;28.00;93.40
3638;DHT22;1835;50.068;8.154;2022-07-21T10:21:02;27.80;92.00
3638;DHT22;1835;50.068;8.154;2022-07-21T10:23:38;27.50;93.70
3638;DHT22;1835;50.068;8.154;2022-07-21T10:26:10;27.70;93.40
3638;DHT22;1835;50.068;8.154;2022-07-21T10:28:40;27.90;91.90
3638;DHT22;1835;50.068;8.154;2022-07-21T10:31:17;28.60;92.60
3638;DHT22;1835;50.068;8.154;2022-07-21T10:33:58;29.90;93.20
3638;DHT22;1835;50.068;8.154;2022-07-21T10:36:46;30.80;86.00
3638;DHT22;1835;50.068;8.154;2022-07-21T10:39:23;31.30;79.40
3638;DHT22;1835;50.068;8.154;2022-07-21T10:41:54;31.80;77.30
3638;DHT22;1835;50.068;8.154;2022-07-21T10:47:19;30.70;75.30
3638;DHT22;1835;50.068;8.154;2022-07-21T10:49:53;30.00;77.50
3638;DHT22;1835;50.068;8.154;2022-07-21T10:52:57;29.60;78.80
3638;DHT22;1835;50.068;8.154;2022-07-21T10:55:30;29.10;79.70
3638;DHT22;1835;50.068;8.154;2022-07-21T10:58:14;28.90;82.60
3638;DHT22;1835;50.068;8.154;2022-07-21T11:00:47;29.10;81.00
3638;DHT22;1835;50.068;8.154;2022-07-21T11:03:19;29.00;78.90
3638;DHT22;1835;50.068;8.154;2022-07-21T11:06:12;28.70;78.00
3638;DHT22;1835;50.068;8.154;2022-07-21T11:09:06;28.40;78.40
3638;DHT22;1835;50.068;8.154;2022-07-21T11:11:37;28.00;76.80
3638;DHT22;1835;50.068;8.154;2022-07-21T11:14:11;27.90;77.80
3638;DHT22;1835;50.068;8.154;2022-07-21T11:17:08;28.00;78.70
3638;DHT22;1835;50.068;8.154;2022-07-21T11:19:43;28.30;76.90
3638;DHT22;1835;50.068;8.154;2022-07-21T11:22:18;28.30;78.20
3638;DHT22;1835;50.068;8.154;2022-07-21T11:24:48;28.40;81.00
3638;DHT22;1835;50.068;8.154;2022-07-21T11:27:25;28.40;78.70
3638;DHT22;1835;50.068;8.154;2022-07-21T11:29:55;28.70;78.00
3638;DHT22;1835;50.068;8.154;2022-07-21T11:32:26;28.50;75.20
3638;DHT22;1835;50.068;8.154;2022-07-21T11:34:56;28.20;73.00
3638;DHT22;1835;50.068;8.154;2022-07-21T11:37:30;28.00;73.30
3638;DHT22;1835;50.068;8.154;2022-07-21T11:40:04;27.80;74.50
3638;DHT22;1835;50.068;8.154;2022-07-21T11:42:34;27.70;75.90
3638;DHT22;1835;50.068;8.154;2022-07-21T11:45:04;27.60;76.10
3638;DHT22;1835;50.068;8.154;2022-07-21T11:47:35;27.80;78.60
3638;DHT22;1835;50.068;8.154;2022-07-21T11:50:07;28.10;76.20
3638;DHT22;1835;50.068;8.154;2022-07-21T11:52:38;28.40;76.40
3638;DHT22;1835;50.068;8.154;2022-07-21T11:55:09;28.30;73.80
3638;DHT22;1835;50.068;8.154;2022-07-21T11:57:41;28.20;74.90
3638;DHT22;1835;50.068;8.154;2022-07-21T12:00:11;28.10;77.80
3638;DHT22;1835;50.068;8.154;2022-07-21T12:02:42;28.00;77.50
3638;DHT22;1835;50.068;8.154;2022-07-21T12:05:11;28.10;76.30
3638;DHT22;1835;50.068;8.154;2022-07-21T12:07:44;28.20;79.10
3638;DHT22;1835;50.068;8.154;2022-07-21T12:10:22;28.40;83.00
3638;DHT22;1835;50.068;8.154;2022-07-21T12:12:57;28.70;81.30
3638;DHT22;1835;50.068;8.154;2022-07-21T12:15:28;28.80;75.20
3638;DHT22;1835;50.068;8.154;2022-07-21T12:18:02;28.80;75.40
3638;DHT22;1835;50.068;8.154;2022-07-21T12:20:33;28.60;75.20
3638;DHT22;1835;50.068;8.154;2022-07-21T12:23:07;28.30;74.80
3638;DHT22;1835;50.068;8.154;2022-07-21T12:25:45;28.30;74.50
3638;DHT22;1835;50.068;8.154;2022-07-21T12:28:21;28.00;75.40
3638;DHT22;1835;50.068;8.154;2022-07-21T12:31:10;28.30;77.00
3638;DHT22;1835;50.068;8.154;2022-07-21T12:33:42;28.40;75.10
3638;DHT22;1835;50.068;8.154;2022-07-21T12:36:33;28.20;75.20
3638;DHT22;1835;50.068;8.154;2022-07-21T12:39:16;28.00;74.50
3638;DHT22;1835;50.068;8.154;2022-07-21T12:42:06;27.90;75.10
3638;DHT22;1835;50.068;8.154;2022-07-21T12:44:35;27.90;75.30
3638;DHT22;1835;50.068;8.154;2022-07-21T12:47:15;28.00;75.30
3638;DHT22;1835;50.068;8.154;2022-07-21T12:50:01;28.30;76.70
3638;DHT22;1835;50.068;8.154;2022-07-21T12:52:42;28.30;73.80
3638;DHT22;1835;50.068;8.154;2022-07-21T12:55:11;28.50;75.40
3638;DHT22;1835;50.068;8.154;2022-07-21T12:57:39;28.60;76.10
3638;DHT22;1835;50.068;8.154;2022-07-21T13:00:08;28.60;74.40
3638;DHT22;1835;50.068;8.154;2022-07-21T13:02:45;28.60;74.40
3638;DHT22;1835;50.068;8.154;2022-07-21T13:05:16;28.70;74.30
3638;DHT22;1835;50.068;8.154;2022-07-21T13:07:44;28.70;75.20
3638;DHT22;1835;50.068;8.154;2022-07-21T13:10:13;28.90;75.00
3638;DHT22;1835;50.068;8.154;2022-07-21T13:12:41;28.90;72.40
3638;DHT22;1835;50.068;8.154;2022-07-21T13:15:10;28.80;70.40
3638;DHT22;1835;50.068;8.154;2022-07-21T13:17:39;28.80;74.00
3638;DHT22;1835;50.068;8.154;2022-07-21T13:20:08;28.90;72.60
3638;DHT22;1835;50.068;8.154;2022-07-21T13:22:39;29.00;73.50
3638;DHT22;1835;50.068;8.154;2022-07-21T13:25:09;28.90;71.70
3638;DHT22;1835;50.068;8.154;2022-07-21T13:27:39;28.70;73.80
3638;DHT22;1835;50.068;8.154;2022-07-21T13:30:20;28.40;72.90
3638;DHT22;1835;50.068;8.154;2022-07-21T13:32:48;28.30;74.30
3638;DHT22;1835;50.068;8.154;2022-07-21T13:35:16;28.30;74.10
3638;DHT22;1835;50.068;8.154;2022-07-21T13:37:54;28.40;75.10
3638;DHT22;1835;50.068;8.154;2022-07-21T13:40:23;28.40;76.20
3638;DHT22;1835;50.068;8.154;2022-07-21T13:43:12;28.30;73.10
3638;DHT22;1835;50.068;8.154;2022-07-21T13:46:01;28.30;73.70
3638;DHT22;1835;50.068;8.154;2022-07-21T13:48:29;28.20;74.30
3638;DHT22;1835;50.068;8.154;2022-07-21T13:50:58;28.20;75.20
3638;DHT22;1835;50.068;8.154;2022-07-21T13:53:27;28.00;75.30
3638;DHT22;1835;50.068;8.154;2022-07-21T13:55:55;28.00;77.10
3638;DHT22;1835;50.068;8.154;2022-07-21T13:58:23;28.10;76.20
3638;DHT22;1835;50.068;8.154;2022-07-21T14:00:52;28.30;76.90
3638;DHT22;1835;50.068;8.154;2022-07-21T14:03:21;28.40;76.00
3638;DHT22;1835;50.068;8.154;2022-07-21T14:05:49;28.40;75.20
3638;DHT22;1835;50.068;8.154;2022-07-21T14:08:17;28.30;73.30
3638;DHT22;1835;50.068;8.154;2022-07-21T14:10:47;28.30;73.90
3638;DHT22;1835;50.068;8.154;2022-07-21T14:13:15;28.40;74.80
3638;DHT22;1835;50.068;8.154;2022-07-21T14:15:43;28.30;73.30
3638;DHT22;1835;50.068;8.154;2022-07-21T14:18:12;28.30;73.80
3638;DHT22;1835;50.068;8.154;2022-07-21T14:20:40;28.50;73.40
3638;DHT22;1835;50.068;8.154;2022-07-21T14:23:09;28.70;73.70
3638;DHT22;1835;50.068;8.154;2022-07-21T14:25:37;28.80;71.60
3638;DHT22;1835;50.068;8.154;2022-07-21T14:28:08;28.80;70.60
3638;DHT22;1835;50.068;8.154;2022-07-21T14:30:36;29.00;70.30
3638;DHT22;1835;50.068;8.154;2022-07-21T14:33:04;28.60;69.50
3638;DHT22;1835;50.068;8.154;2022-07-21T14:35:32;28.50;72.50
3638;DHT22;1835;50.068;8.154;2022-07-21T14:38:01;28.50;69.80
3638;DHT22;1835;50.068;8.154;2022-07-21T14:40:29;28.50;71.80
3638;DHT22;1835;50.068;8.154;2022-07-21T14:42:57;28.50;71.20
3638;DHT22;1835;50.068;8.154;2022-07-21T14:45:27;28.50;69.80
3638;DHT22;1835;50.068;8.154;2022-07-21T14:47:56;28.60;70.30
3638;DHT22;1835;50.068;8.154;2022-07-21T14:50:26;28.50;69.70
3638;DHT22;1835;50.068;8.154;2022-07-21T14:52:55;28.60;69.70
3638;DHT22;1835;50.068;8.154;2022-07-21T14:55:24;28.30;68.50
3638;DHT22;1835;50.068;8.154;2022-07-21T14:57:53;28.30;69.60
3638;DHT22;1835;50.068;8.154;2022-07-21T15:00:22;28.00;69.70
3638;DHT22;1835;50.068;8.154;2022-07-21T15:02:53;28.10;72.70
3638;DHT22;1835;50.068;8.154;2022-07-21T15:05:22;28.10;72.20
3638;DHT22;1835;50.068;8.154;2022-07-21T15:07:50;28.20;73.00
3638;DHT22;1835;50.068;8.154;2022-07-21T15:10:18;28.30;71.20
3638;DHT22;1835;50.068;8.154;2022-07-21T15:12:48;28.30;72.70
3638;DHT22;1835;50.068;8.154;2022-07-21T15:15:17;28.40;72.10
3638;DHT22;1835;50.068;8.154;2022-07-21T15:17:45;28.50;74.50
3638;DHT22;1835;50.068;8.154;2022-07-21T15:20:14;28.40;72.20
3638;DHT22;1835;50.068;8.154;2022-07-21T15:22:43;28.30;72.20
3638;DHT22;1835;50.068;8.154;2022-07-21T15:25:11;28.10;72.10
3638;DHT22;1835;50.068;8.154;2022-07-21T15:27:40;28.10;73.30
3638;DHT22;1835;50.068;8.154;2022-07-21T15:30:12;28.00;72.50
3638;DHT22;1835;50.068;8.154;2022-07-21T15:32:41;28.00;75.20
3638;DHT22;1835;50.068;8.154;2022-07-21T15:35:10;28.10;72.30
3638;DHT22;1835;50.068;8.154;2022-07-21T15:37:39;28.20;73.10
3638;DHT22;1835;50.068;8.154;2022-07-21T15:40:09;28.10;74.00
3638;DHT22;1835;50.068;8.154;2022-07-21T15:42:39;28.10;73.70
3638;DHT22;1835;50.068;8.154;2022-07-21T15:45:10;28.10;73.00
3638;DHT22;1835;50.068;8.154;2022-07-21T15:47:39;28.10;71.50
3638;DHT22;1835;50.068;8.154;2022-07-21T15:50:08;28.10;70.60
3638;DHT22;1835;50.068;8.154;2022-07-21T15:52:41;28.20;71.20
3638;DHT22;1835;50.068;8.154;2022-07-21T15:55:10;27.90;72.40
3638;DHT22;1835;50.068;8.154;2022-07-21T15:57:39;27.80;73.00
3638;DHT22;1835;50.068;8.154;2022-07-21T16:00:09;27.70;73.20
3638;DHT22;1835;50.068;8.154;2022-07-21T16:02:39;27.50;74.30
3638;DHT22;1835;50.068;8.154;2022-07-21T16:05:09;27.40;73.10
3638;DHT22;1835;50.068;8.154;2022-07-21T16:07:42;27.40;74.60
3638;DHT22;1835;50.068;8.154;2022-07-21T16:10:13;27.30;74.20
3638;DHT22;1835;50.068;8.154;2022-07-21T16:12:45;27.20;75.90
3638;DHT22;1835;50.068;8.154;2022-07-21T16:15:18;27.10;76.10
3638;DHT22;1835;50.068;8.154;2022-07-21T16:17:48;27.00;76.60
3638;DHT22;1835;50.068;8.154;2022-07-21T16:20:18;26.90;77.00
3638;DHT22;1835;50.068;8.154;2022-07-21T16:22:51;27.00;77.90
3638;DHT22;1835;50.068;8.154;2022-07-21T16:25:23;27.20;79.60
3638;DHT22;1835;50.068;8.154;2022-07-21T16:27:53;27.20;77.90
3638;DHT22;1835;50.068;8.154;2022-07-21T16:30:21;27.10;78.10
3638;DHT22;1835;50.068;8.154;2022-07-21T16:33:19;27.20;78.60